Pays
Station

 

Conditions  météo  pour  Akureyri  -  Islande    Islande

  
2 °C
    
 
 

METAR pour Akureyri :

BIAR 200700Z 18010KT 150V210 9999 -DZ FEW020 BKN026 OVC046 02/M01 Q0996 RMK WIND VADLAHEIDI 20922KT

 

Voici le bulletin pour Akureyri - Islande.
 
Le bulletin a été fait il y a 12 minutes, à 07:00 UTC .
Le vent soufflait à la vitesse de 5.1 mètres par seconde de Sud (180°), variant entre Sud/Sud-est (150°) et Sud/Sud-ouest (210°).
 
La température était de 2 °C, avec un point de rosée à -1 °C.
La température ressentie était de -3 °C.
 
La pression atmosphérique était de 996 hPa.
L'humidité relative était de 80.5%.
 
Il y avait 1 à 2/8ème de nébulosité à une hauteur de 610 mètres et 5 à 7/8ème de nébulosité à une hauteur de 792 mètres. Le ciel était nuageux à partir d'une hauteur de 1402 mètres
 
La visibilité globale était de supérieure à 10 kilomètres.
 
Actuellement léger/legère bruine.

 
 
 

Pays :   A   B   C   D   E   F   G   H   I   J   K   L   M   N   O   P   Q   R   S   T   U   V   W   Y   Z

 

Partenaires :  Info Météo avec Met'info
Météo Marine avec MeteoMarine.net
Infos Site  |  Infos Légales  |  Crédits  |  Confidentialité
Contactez-nous  |  Ajouter aux favoris
© 2013-2020 METAR - Tous droits réservés